createdAt,value
2023-05-21T00:02:17.300Z,64.14
2023-05-21T00:12:19.443Z,64.88
2023-05-21T00:22:21.613Z,64.67
2023-05-21T00:32:24.217Z,65.11
2023-05-21T00:42:27.566Z,63.32
2023-05-21T00:52:30.147Z,62.45
2023-05-21T01:02:34.838Z,61.89
2023-05-21T01:12:38.949Z,62.55
2023-05-21T01:22:51.825Z,63.11
2023-05-21T01:33:04.232Z,63.79
2023-05-21T01:43:08.292Z,63.22
2023-05-21T01:53:10.650Z,63.81
2023-05-21T02:03:16.469Z,64.79
2023-05-21T02:13:25.032Z,63.34
2023-05-21T02:23:28.419Z,66.01
2023-05-21T02:33:32.091Z,67.28
2023-05-21T02:43:34.585Z,65.70
2023-05-21T02:53:36.880Z,65.32
2023-05-21T03:03:39.252Z,65.99
2023-05-21T03:13:42.752Z,66.24
2023-05-21T03:23:45.039Z,65.34
2023-05-21T03:33:47.758Z,65.35
2023-05-21T03:43:58.294Z,65.85
2023-05-21T03:54:05.794Z,66.97
2023-05-21T04:04:10.006Z,67.83
2023-05-21T04:14:12.810Z,66.99
2023-05-21T04:24:14.930Z,66.94
2023-05-21T04:34:34.263Z,66.71
2023-05-21T04:44:38.383Z,67.77
2023-05-21T04:54:42.012Z,68.12
2023-05-21T05:04:44.372Z,65.50
2023-05-21T05:14:46.590Z,67.80
2023-05-21T05:24:48.891Z,66.70
2023-05-21T05:34:51.384Z,68.10
2023-05-21T05:44:53.608Z,64.35
2023-05-21T05:54:55.933Z,64.89
2023-05-21T06:04:58.409Z,65.02
2023-05-21T06:15:01.716Z,65.66
2023-05-21T06:25:05.884Z,63.51
2023-05-21T06:35:09.460Z,64.27
2023-05-21T06:45:12.269Z,61.86
2023-05-21T06:55:18.679Z,61.27
2023-05-21T07:05:39.776Z,61.77
2023-05-21T07:15:42.388Z,61.82
2023-05-21T07:25:44.691Z,61.86
2023-05-21T07:35:49.174Z,62.52
2023-05-21T07:45:51.596Z,59.36
2023-05-21T07:55:54.344Z,59.31
2023-05-21T08:06:01.141Z,59.54
2023-05-21T08:16:03.701Z,58.26
2023-05-21T08:26:06.934Z,59.32
2023-05-21T08:36:11.150Z,57.75
2023-05-21T08:46:22.064Z,57.18
2023-05-21T08:56:24.760Z,56.32
2023-05-21T09:06:33.940Z,56.27
2023-05-21T09:16:38.587Z,56.53
2023-05-21T09:26:44.340Z,54.81
2023-05-21T09:36:51.924Z,55.19
2023-05-21T09:47:00.556Z,54.90
2023-05-21T09:57:03.124Z,53.81
2023-05-21T10:07:05.478Z,53.28
2023-05-21T10:17:07.754Z,52.58
2023-05-21T10:27:10.443Z,53.81
2023-05-21T10:37:13.048Z,53.66
2023-05-21T10:47:28.988Z,51.18
2023-05-21T10:58:10.032Z,50.89
2023-05-21T11:08:23.548Z,54.27
2023-05-21T11:18:38.423Z,52.33
2023-05-21T11:28:41.720Z,50.68
2023-05-21T11:39:23.049Z,49.19
2023-05-21T11:49:25.276Z,49.18
2023-05-21T11:59:27.624Z,47.47
2023-05-21T12:09:29.973Z,48.45
2023-05-21T12:19:33.876Z,49.60
2023-05-21T12:29:38.491Z,49.53
2023-05-21T12:39:47.496Z,47.69
2023-05-21T12:49:50.041Z,48.20
2023-05-21T12:59:59.844Z,47.97
2023-05-21T13:10:02.994Z,47.11
2023-05-21T13:20:10.467Z,46.44
2023-05-21T13:30:13.697Z,46.34
2023-05-21T13:40:16.799Z,45.20
2023-05-21T13:50:19.202Z,44.97
2023-05-21T14:00:21.630Z,43.70
2023-05-21T14:10:23.946Z,43.41
2023-05-21T14:20:26.364Z,44.86
2023-05-21T14:30:28.527Z,44.83
2023-05-21T14:40:30.809Z,43.21
2023-05-21T14:50:32.979Z,42.58
2023-05-21T15:00:36.173Z,43.72
2023-05-21T15:10:38.748Z,44.34
2023-05-21T15:20:41.538Z,44.40
2023-05-21T15:30:43.987Z,44.81
2023-05-21T15:40:47.537Z,43.89
2023-05-21T15:50:50.107Z,44.57
2023-05-21T16:00:52.567Z,45.00
2023-05-21T16:10:57.121Z,46.50
2023-05-21T16:20:59.420Z,46.17
2023-05-21T16:31:01.905Z,45.54
2023-05-21T16:41:04.225Z,47.07
2023-05-21T16:51:06.513Z,47.40
2023-05-21T17:01:08.813Z,46.83
2023-05-21T17:11:11.154Z,48.57
2023-05-21T17:21:13.728Z,50.06
2023-05-21T17:31:16.359Z,50.11
2023-05-21T17:41:21.765Z,49.14
2023-05-21T17:51:24.109Z,50.28
2023-05-21T18:01:26.378Z,50.53
2023-05-21T18:11:28.741Z,51.08
2023-05-21T18:21:31.463Z,51.68
2023-05-21T18:31:34.025Z,52.76
2023-05-21T18:41:37.462Z,52.76
2023-05-21T18:51:40.986Z,51.89
2023-05-21T19:01:43.290Z,55.32
2023-05-21T19:11:45.544Z,56.41
2023-05-21T19:21:47.795Z,56.20
2023-05-21T19:31:50.038Z,57.19
2023-05-21T19:41:53.040Z,52.82
2023-05-21T19:51:56.050Z,48.82
2023-05-21T20:01:58.213Z,54.12
2023-05-21T20:12:00.475Z,66.14
2023-05-21T20:22:02.674Z,73.65
2023-05-21T20:32:05.405Z,73.37
2023-05-21T20:42:10.636Z,72.93
2023-05-21T20:52:14.232Z,75.23
2023-05-21T21:02:16.790Z,77.53
2023-05-21T21:12:25.258Z,75.86
2023-05-21T21:22:28.875Z,77.52
2023-05-21T21:32:31.111Z,75.26
2023-05-21T21:42:33.505Z,75.35
2023-05-21T21:52:39.905Z,77.72
2023-05-21T22:02:42.870Z,78.70
2023-05-21T22:12:46.142Z,79.17
2023-05-21T22:22:48.472Z,78.80
2023-05-21T22:32:50.914Z,79.98
2023-05-21T22:42:53.113Z,80.55
2023-05-21T22:52:55.475Z,79.84
2023-05-21T23:02:57.699Z,80.86
2023-05-21T23:13:00.161Z,79.46
2023-05-21T23:23:02.391Z,79.50
2023-05-21T23:33:04.595Z,79.30
2023-05-21T23:43:07.778Z,78.59
2023-05-21T23:53:10.396Z,80.63
